• Join FlightAware (Why Join?)
  • Login
  • US Flag 
08:03AM EDT


 

Airport Tracker/Info


-or-


 

Live Flight TrackerFlight Track Log ✈ SWA3398 ✈ 01-May-2012 ✈ KISP - KPBI

Flight Track Log - Related Links

Times and Time Zones

All times are in EDT time to prevent confusion due to time zone crossing. See the SWA3398 flight status page for this flight to view local times or setup timezone preferences in your user account.

Time Position Orientation Groundspeed Altitude Reporting Facility
EDT Latitude Longitude Course Direction KTS MPH feet Rate Location/Type
11:39AM 40.7686 -73.1333 120° Southeast 146 168 1,900  Level Boston Center
11:40AM 40.7419 -73.0728 91° East 124 143 3,900 1,080 Climbing Boston Center
11:41AM 40.7403 -72.9769 92° East 187 215 4,100 1,800 Climbing Boston Center
11:42AM 40.7367 -72.8564 98° East 267 307 7,600 1,920 Climbing Boston Center
11:43AM 40.7244 -72.7414 145° Southeast 305 351 8,000 660 Climbing Boston Center
11:44AM 40.6581 -72.6808 198° South 280 322 9,000 1,800 Climbing Boston Center
11:45AM 40.5808 -72.7133 221° Southwest 230 265 11,700 3,000 Climbing Boston Center
11:46AM 40.5117 -72.7922 221° Southwest 271 312 15,100 3,240 Climbing Boston Center
11:47AM 40.4386 -72.8764 222° Southwest 306 352 18,200 3,000 Climbing Boston Center
11:48AM 40.3631 -72.9658 221° Southwest 349 402 21,200 2,700 Climbing Boston Center
11:49AM 40.2983 -73.0386 221° Southwest 361 415 23,600 2,400 Climbing Boston Center
11:50AM 40.2164 -73.1303 219° Southwest 375 432 26,000 2,340 Climbing Boston Center
11:51AM 40.1219 -73.2297 220° Southwest 392 451 28,300 1,980 Climbing Boston Center
11:52AM 40.0358 -73.3236 222° Southwest 397 457 30,000 1,680 Climbing Boston Center
11:53AM 39.9542 -73.4208 221° Southwest 386 444 32,000 1,800 Climbing Washington Center
11:54AM 39.8706 -73.5153 220° Southwest 392 451 33,900 1,800 Climbing Washington Center
11:55AM 39.7825 -73.6122 220° Southwest 404 465 35,600 1,740 Climbing Washington Center
11:56AM 39.6925 -73.7119 220° Southwest 398 458 37,400 1,560 Climbing Washington Center
11:57AM 39.6064 -73.8058 220° Southwest 398 458 38,800 1,200 Climbing Washington Center
11:58AM 39.5222 -73.8967 221° Southwest 398 458 39,900 540 Climbing Washington Center
11:59AM 39.4403 -73.9900 219° Southwest 398 458 40,000  Climbing Washington Center
12:00PM 39.3539 -74.0806 220° Southwest 398 458 40,000  Level Washington Center
12:01PM 39.2694 -74.1733 221° Southwest 405 466 40,000  Level Washington Center
12:02PM 39.1853 -74.2661 220° Southwest 405 466 40,000  Level Washington Center
12:03PM 39.0986 -74.3586 220° Southwest 405 466 40,000  Level Washington Center
12:04PM 39.0142 -74.4483 220° Southwest 400 460 40,000  Level Washington Center
12:05PM 38.9294 -74.5403 220° Southwest 400 460 40,000  Level Washington Center
12:06PM 38.8447 -74.6322 219° Southwest 400 460 40,000  Level Washington Center
12:07PM 38.7578 -74.7239 220° Southwest 400 460 40,000  Level Washington Center
12:08PM 38.6731 -74.8153 219° Southwest 400 460 40,000  Level Washington Center
12:09PM 38.5881 -74.9039 219° Southwest 406 467 40,000  Level Washington Center
12:10PM 38.5011 -74.9947 222° Southwest 401 461 40,000  Level Washington Center
12:11PM 38.4161 -75.0908 219° Southwest 401 461 40,000  Level Washington Center
12:12PM 38.3289 -75.1814 220° Southwest 407 468 40,000  Level Washington Center
12:13PM 38.2394 -75.2772 204° Southwest 407 468 40,000  Level Washington Center
12:14PM 38.1333 -75.3383 207° Southwest 417 480 40,000  Level Washington Center
12:15PM 38.0250 -75.4072 207° Southwest 423 487 40,000  Level Washington Center
12:16PM 37.9208 -75.4733 206° Southwest 428 493 40,000  Level Washington Center
12:17PM 37.8144 -75.5392 206° Southwest 428 493 40,000  Level Washington Center
12:18PM 37.7058 -75.6050 206° Southwest 428 493 40,000  Level Washington Center
12:19PM 37.5975 -75.6731 205° Southwest 428 493 40,000  Level Washington Center
12:20PM 37.4889 -75.7383 206° Southwest 428 493 40,000  Level Washington Center
12:21PM 37.3803 -75.8061 206° Southwest 428 493 40,000  Level Washington Center
12:22PM 37.2719 -75.8711 205° Southwest 428 493 40,000  Level Washington Center
12:23PM 37.1717 -75.9308 207° Southwest 428 493 40,000  Level Washington Center
12:24PM 37.0650 -75.9981 204° Southwest 428 493 40,000  Level Washington Center
12:25PM 36.9394 -76.0675 205° Southwest 438 504 40,000  Level Washington Center
12:26PM 36.8286 -76.1317 207° Southwest 444 511 40,000  Level Washington Center
12:27PM 36.7219 -76.1983 207° Southwest 444 511 40,000  Level Washington Center
12:28PM 36.6214 -76.2622 205° Southwest 444 511 40,000  Level Washington Center
12:29PM 36.5083 -76.3283 206° Southwest 444 511 40,000  Level Washington Center
12:30PM 36.3975 -76.3944 204° Southwest 444 511 40,000  Level Washington Center
12:31PM 36.2844 -76.4578 206° Southwest 444 511 40,000  Level Washington Center
12:32PM 36.1733 -76.5261 205° Southwest 444 511 40,000  Level Washington Center
12:33PM 36.0558 -76.5939 207° Southwest 444 511 40,000  Level Washington Center
12:34PM 35.9447 -76.6644 204° Southwest 444 511 40,000  Level Washington Center
12:35PM 35.8294 -76.7269 206° Southwest 444 511 40,000  Level Washington Center
12:36PM 35.7161 -76.7944 206° Southwest 444 511 40,000  Level Washington Center
12:37PM 35.5922 -76.8692 204° Southwest 444 511 40,000  Level Washington Center
12:38PM 35.4747 -76.9336 206° Southwest 450 518 40,000  Level Washington Center
12:39PM 35.3633 -77.0006 204° Southwest 457 526 40,000  Level Washington Center
12:40PM 35.2436 -77.0672 206° Southwest 462 532 40,000  Level Washington Center
12:41PM 35.1258 -77.1361 204° Southwest 462 532 40,000  Level Washington Center
12:42PM 35.0103 -77.1997 205° Southwest 462 532 40,000  Level Washington Center
12:43PM 34.9031 -77.2608 207° Southwest 469 540 40,000  Level Washington Center
12:44PM 34.7892 -77.3319 205° Southwest 461 531 40,000  Level Washington Center
12:45PM 34.6756 -77.3978 203° Southwest 461 531 40,000  Level Washington Center
12:46PM 34.5600 -77.4583 195° South 461 531 40,000  Level Washington Center
12:47PM 34.4361 -77.4983 195° South 461 531 40,000  Level Washington Center
12:49PM 34.1875 -77.5761 192° South 459 528 40,000  Level Jacksonville Center
12:50PM 34.0594 -77.6089 196° South 461 531 40,000  Level Jacksonville Center
12:51PM 33.9239 -77.6569 193° South 466 536 40,000  Level Jacksonville Center
12:52PM 33.8022 -77.6919 196° South 462 532 40,000  Level Jacksonville Center
12:53PM 33.6808 -77.7339 196° South 462 532 40,000  Level Jacksonville Center
12:54PM 33.5697 -77.7728 195° South 465 535 40,000  Level Jacksonville Center
12:55PM 33.4483 -77.8122 195° South 465 535 40,000  Level Jacksonville Center
12:57PM 33.2072 -77.8881 195° South 455 524 40,000  Level Jacksonville Center
12:58PM 33.0878 -77.9269 195° South 449 517 40,000  Level Jacksonville Center
12:59PM 32.9661 -77.9658 194° South 449 517 40,000  Level Jacksonville Center
01:00PM 32.8486 -78.0019 195° South 449 517 40,000  Level Jacksonville Center
01:01PM 32.7289 -78.0406 194° South 449 517 40,000  Level Jacksonville Center
01:02PM 32.6114 -78.0764 195° South 449 517 40,000  Level Jacksonville Center
01:03PM 32.4939 -78.1147 193° South 449 517 40,000  Level Jacksonville Center
01:04PM 32.3761 -78.1478 196° South 449 517 40,000  Level Jacksonville Center
01:05PM 32.2606 -78.1858 194° South 443 510 40,000  Level Jacksonville Center
01:06PM 32.1431 -78.2211 195° South 443 510 40,000  Level Jacksonville Center
01:08PM 31.9158 -78.2914 195° South 429 494 40,000  Level Jacksonville Center
01:09PM 31.8025 -78.3264 196° South 429 494 40,000  Level Jacksonville Center
01:10PM 31.6850 -78.3664 195° South 429 494 40,000  Level Jacksonville Center
01:11PM 31.5714 -78.4011 194° South 429 494 40,000  Level Jacksonville Center
01:12PM 31.4536 -78.4361 195° South 436 502 40,000  Level Jacksonville Center
01:13PM 31.3381 -78.4733 196° South 431 496 40,000  Level Jacksonville Center
01:14PM 31.2183 -78.5131 194° South 436 502 40,000  Level Jacksonville Center
01:15PM 31.1025 -78.5475 194° South 436 502 40,000  Level Jacksonville Center
01:16PM 30.9578 -78.5881 196° South 468 539 40,000  Level Jacksonville Center
01:18PM 30.7378 -78.6625 195° South 435 501 40,000  Level Miami Center
01:19PM 30.6186 -78.6989 197° South 440 506 40,000  Level Miami Center
01:20PM 30.5014 -78.7403 197° South 440 506 40,000  Level Miami Center
01:21PM 30.3861 -78.7817 198° South 432 497 40,000  Level Miami Center
01:22PM 30.2708 -78.8250 196° South 442 509 40,000  Level Miami Center
01:23PM 30.1558 -78.8636 198° South 442 509 40,000  Level Miami Center
01:24PM 30.0406 -78.9072 200° South 448 516 40,000  Level Miami Center
01:25PM 29.9336 -78.9531 195° South 430 495 40,000  Level Miami Center
01:26PM 29.8161 -78.9889 197° South 430 495 40,000  Level Miami Center
01:27PM 29.7050 -79.0275 184° South 430 495 40,000  Level Miami Center
01:28PM 29.5778 -79.0367 190° South 443 510 40,000  Level Miami Center
01:29PM 29.4586 -79.0606 189° South 434 499 40,000  Level Miami Center
01:30PM 29.3392 -79.0819 190° South 434 499 40,000  Level Miami Center
01:31PM 29.2222 -79.1058 186° South 431 496 40,000  Level Miami Center
01:32PM 29.0944 -79.1222 191° South 443 510 40,000  Level Miami Center
01:33PM 28.9814 -79.1483 188° South 443 510 40,000  Level Miami Center
01:34PM 28.8622 -79.1672 190° South 436 502 40,000 -420 Level Miami Center
01:35PM 28.7408 -79.1906 190° South 436 502 39,200 -1,680 Descending Miami Center
01:36PM 28.6214 -79.2142 188° South 436 502 36,700 -2,640 Descending Miami Center
01:37PM 28.5022 -79.2331 190° South 441 507 34,000 -2,460 Descending Miami Center
01:38PM 28.3808 -79.2564 189° South 441 507 31,800 -2,280 Descending Miami Center
01:39PM 28.2636 -79.2775 189° South 441 507 29,500 -2,280 Descending Miami Center
01:40PM 28.1483 -79.2986 189° South 432 497 27,300 -2,220 Descending Miami Center
01:41PM 28.0458 -79.3175 190° South 407 468 25,100 -1,200 Descending Miami Center
01:42PM 27.9369 -79.3386 208° Southwest 401 461 25,000 -960 Descending Miami Center
01:43PM 27.8439 -79.3953 211° Southwest 380 437 23,200 -1,800 Descending Miami Center
01:44PM 27.7575 -79.4544 211° Southwest 379 436 21,400 -1,980 Descending Miami Center
01:45PM 27.6644 -79.5181 212° Southwest 367 422 19,300 -1,980 Descending Miami Center
01:46PM 27.5797 -79.5769 211° Southwest 362 417 17,500 -1,800 Descending Miami Center
01:47PM 27.4931 -79.6358 212° Southwest 362 417 15,700 -1,800 Descending Miami Center
01:48PM 27.4231 -79.6856 211° Southwest 357 411 13,900 -1,800 Descending Miami Center
01:49PM 27.3428 -79.7397 212° Southwest 348 400 12,200 -1,920 Descending Miami Center
01:50PM 27.2581 -79.7983 210° Southwest 338 389 10,100 -1,440 Descending Miami Center
01:52PM 27.1142 -79.8928 206° Southwest 316 364 7,900 -1,080 Descending Miami Center
01:53PM 27.0506 -79.9283 207° Southwest 295 339 6,900 -1,260 Descending Miami Center
01:54PM 26.9808 -79.9683 213° Southwest 284 327 5,400 -1,500 Descending Miami Center
01:55PM 26.9131 -80.0178 220° Southwest 284 327 4,000 -720 Descending Miami Center
01:56PM 26.8575 -80.0700 184° South 268 308 4,000  Level Miami Center
02:03PM 26.6667 -80.0833 326° Northwest  Level FlightAware Approximate
02:04PM 26.7577 -80.1510 146° Southeast  Level Estimated
02:05PM 26.6667 -80.0833 326° Northwest  Level Estimated
02:06PM 26.7577 -80.1510 146° Southeast  Level Estimated
02:07PM 26.6667 -80.0833 326° Northwest  Level FlightAware Approximate
02:08PM 26.7577 -80.1510 326° Northwest  Level Estimated